createdAt,value
2023-03-18T00:00:51.063Z,33.68
2023-03-18T00:03:22.313Z,33.53
2023-03-18T00:05:52.432Z,33.76
2023-03-18T00:08:22.295Z,33.82
2023-03-18T00:10:53.082Z,33.93
2023-03-18T00:13:30.441Z,33.87
2023-03-18T00:16:00.949Z,33.84
2023-03-18T00:18:31.071Z,33.62
2023-03-18T00:21:02.847Z,34.34
2023-03-18T00:23:33.932Z,42.65
2023-03-18T00:26:04.299Z,35.96
2023-03-18T00:28:35.153Z,34.58
2023-03-18T00:31:08.094Z,34.12
2023-03-18T00:33:40.393Z,33.86
2023-03-18T00:36:25.886Z,33.77
2023-03-18T00:39:02.804Z,33.46
2023-03-18T00:41:36.652Z,33.44
2023-03-18T00:44:08.110Z,33.23
2023-03-18T00:46:55.093Z,33.29
2023-03-18T00:49:27.184Z,33.20
2023-03-18T00:51:57.748Z,33.21
2023-03-18T00:54:26.866Z,33.38
2023-03-18T00:56:57.452Z,33.38
2023-03-18T00:59:27.092Z,33.47
2023-03-18T01:01:56.526Z,33.48
2023-03-18T01:04:27.729Z,33.45
2023-03-18T01:06:57.343Z,33.40
2023-03-18T01:09:31.535Z,33.52
2023-03-18T01:12:03.490Z,33.26
2023-03-18T01:14:32.859Z,33.32
2023-03-18T01:17:02.244Z,33.33
2023-03-18T01:19:32.155Z,33.33
2023-03-18T01:22:03.621Z,33.37
2023-03-18T01:24:35.320Z,33.39
2023-03-18T01:27:05.669Z,33.24
2023-03-18T01:29:35.850Z,33.32
2023-03-18T01:32:06.401Z,33.25
2023-03-18T01:34:36.477Z,33.38
2023-03-18T01:37:06.070Z,33.22
2023-03-18T01:39:36.654Z,33.32
2023-03-18T01:42:06.757Z,33.24
2023-03-18T01:44:37.249Z,33.18
2023-03-18T01:47:11.745Z,33.15
2023-03-18T01:49:57.990Z,33.11
2023-03-18T01:52:32.304Z,33.10
2023-03-18T01:55:10.111Z,33.05
2023-03-18T01:57:44.406Z,33.12
2023-03-18T02:00:21.182Z,33.03
2023-03-18T02:02:53.450Z,33.14
2023-03-18T02:07:54.468Z,33.00
2023-03-18T02:10:27.105Z,33.08
2023-03-18T02:13:01.534Z,33.03
2023-03-18T02:15:35.750Z,32.97
2023-03-18T02:18:10.483Z,33.09
2023-03-18T02:20:58.381Z,32.94
2023-03-18T02:23:38.660Z,33.01
2023-03-18T02:26:17.899Z,33.10
2023-03-18T02:28:55.922Z,32.84
2023-03-18T02:31:29.501Z,33.06
2023-03-18T02:34:00.705Z,33.01
2023-03-18T02:36:33.422Z,32.96
2023-03-18T02:39:05.197Z,32.97
2023-03-18T02:41:37.038Z,32.93
2023-03-18T02:44:12.897Z,33.00
2023-03-18T02:46:57.612Z,32.94
2023-03-18T02:49:29.205Z,32.98
2023-03-18T02:52:25.500Z,33.21
2023-03-18T02:54:58.773Z,33.29
2023-03-18T02:57:28.146Z,33.42
2023-03-18T02:59:57.846Z,33.49
2023-03-18T03:02:28.417Z,33.62
2023-03-18T03:05:00.880Z,33.91
2023-03-18T03:07:30.372Z,33.92
2023-03-18T03:10:00.987Z,34.10
2023-03-18T03:12:32.525Z,34.42
2023-03-18T03:15:02.834Z,34.70
2023-03-18T03:17:33.384Z,34.83
2023-03-18T03:20:06.198Z,35.04
2023-03-18T03:22:38.444Z,35.09
2023-03-18T03:25:16.121Z,35.04
2023-03-18T03:27:58.710Z,35.06
2023-03-18T03:30:30.360Z,35.01
2023-03-18T03:33:02.316Z,34.66
2023-03-18T03:35:33.957Z,34.84
2023-03-18T03:38:03.452Z,34.84
2023-03-18T03:40:34.102Z,34.89
2023-03-18T03:43:04.561Z,34.79
2023-03-18T03:45:35.358Z,34.85
2023-03-18T03:48:05.784Z,35.19
2023-03-18T03:50:36.586Z,35.45
2023-03-18T03:53:07.023Z,35.52
2023-03-18T03:55:37.324Z,35.40
2023-03-18T03:58:10.015Z,35.13
2023-03-18T04:00:41.253Z,35.17
2023-03-18T04:03:17.862Z,35.27
2023-03-18T04:05:48.994Z,35.32
2023-03-18T04:08:21.416Z,35.33
2023-03-18T04:10:53.917Z,35.37
2023-03-18T04:13:25.266Z,35.36
2023-03-18T04:15:55.652Z,35.26
2023-03-18T04:18:25.499Z,35.20
2023-03-18T04:20:55.005Z,35.24
2023-03-18T04:23:24.263Z,35.15
2023-03-18T04:25:53.090Z,35.05
2023-03-18T04:28:26.280Z,35.12
2023-03-18T04:30:56.002Z,35.28
2023-03-18T04:33:25.703Z,35.32
2023-03-18T04:35:54.927Z,35.21
2023-03-18T04:38:24.576Z,35.23
2023-03-18T04:40:54.845Z,35.17
2023-03-18T04:43:25.451Z,35.36
2023-03-18T04:45:56.329Z,35.21
2023-03-18T04:48:27.436Z,35.34
2023-03-18T04:50:57.161Z,35.28
2023-03-18T04:53:26.772Z,35.32
2023-03-18T04:55:56.374Z,35.10
2023-03-18T04:58:25.661Z,38.69
2023-03-18T05:00:56.994Z,41.60
2023-03-18T05:03:27.157Z,36.37
2023-03-18T05:05:57.505Z,35.48
2023-03-18T05:08:30.512Z,35.01
2023-03-18T05:11:00.415Z,34.61
2023-03-18T05:13:33.136Z,34.33
2023-03-18T05:16:06.384Z,34.27
2023-03-18T05:18:40.758Z,34.25
2023-03-18T05:21:14.652Z,33.99
2023-03-18T05:23:47.412Z,33.95
2023-03-18T05:26:17.227Z,33.91
2023-03-18T05:28:47.177Z,33.81
2023-03-18T05:31:17.420Z,33.72
2023-03-18T05:33:47.770Z,33.66
2023-03-18T05:36:19.222Z,33.61
2023-03-18T05:38:49.064Z,33.36
2023-03-18T05:41:18.956Z,33.37
2023-03-18T05:43:48.706Z,33.37
2023-03-18T05:46:18.472Z,33.05
2023-03-18T05:48:47.846Z,32.86
2023-03-18T05:51:17.231Z,32.58
2023-03-18T05:53:49.081Z,32.34
2023-03-18T05:56:19.066Z,32.42
2023-03-18T05:58:49.400Z,32.47
2023-03-18T06:01:20.398Z,32.45
2023-03-18T06:03:50.250Z,32.35
2023-03-18T06:06:19.721Z,32.86
2023-03-18T06:08:49.518Z,32.91
2023-03-18T06:11:19.373Z,32.54
2023-03-18T06:13:49.508Z,31.81
2023-03-18T06:16:20.213Z,32.16
2023-03-18T06:18:50.179Z,32.67
2023-03-18T06:21:19.298Z,32.90
2023-03-18T06:24:12.789Z,32.88
2023-03-18T06:26:43.729Z,33.29
2023-03-18T06:29:13.259Z,33.23
2023-03-18T06:31:43.735Z,33.19
2023-03-18T06:34:13.350Z,33.36
2023-03-18T06:36:43.906Z,33.58
2023-03-18T06:39:15.173Z,33.93
2023-03-18T06:41:48.508Z,33.92
2023-03-18T06:44:21.563Z,33.99
2023-03-18T06:46:55.275Z,34.05
2023-03-18T06:49:29.474Z,34.32
2023-03-18T06:51:59.997Z,34.99
2023-03-18T06:54:30.440Z,34.72
2023-03-18T06:57:02.444Z,34.77
2023-03-18T06:59:32.304Z,34.58
2023-03-18T07:02:01.861Z,34.77
2023-03-18T07:04:33.858Z,34.92
2023-03-18T07:07:07.413Z,34.85
2023-03-18T07:09:45.572Z,34.98
2023-03-18T07:12:17.716Z,35.29
2023-03-18T07:14:55.764Z,35.38
2023-03-18T07:17:25.207Z,35.82
2023-03-18T07:19:55.418Z,35.91
2023-03-18T07:22:30.562Z,36.31
2023-03-18T07:25:02.685Z,36.33
2023-03-18T07:27:33.274Z,37.05
2023-03-18T07:30:08.911Z,36.59
2023-03-18T07:32:41.006Z,36.41
2023-03-18T07:35:13.548Z,36.23
2023-03-18T07:37:49.811Z,35.75
2023-03-18T07:40:23.266Z,35.74
2023-03-18T07:42:53.114Z,35.46
2023-03-18T07:45:22.370Z,35.08
2023-03-18T07:47:52.421Z,34.90
2023-03-18T07:50:22.015Z,34.74
2023-03-18T07:52:51.934Z,34.46
2023-03-18T07:55:25.088Z,34.65
2023-03-18T07:57:55.043Z,35.03
2023-03-18T08:00:25.844Z,35.21
2023-03-18T08:02:55.214Z,34.98
2023-03-18T08:05:24.882Z,34.70
2023-03-18T08:07:55.190Z,34.95
2023-03-18T08:10:29.036Z,34.83
2023-03-18T08:12:59.477Z,35.13
2023-03-18T08:15:29.905Z,34.68
2023-03-18T08:18:03.751Z,34.66
2023-03-18T08:20:34.168Z,34.82
2023-03-18T08:23:04.977Z,34.75
2023-03-18T08:26:22.277Z,34.51
2023-03-18T08:38:58.967Z,34.32
2023-03-18T08:42:37.907Z,33.89
2023-03-18T08:54:48.829Z,33.09
2023-03-18T09:01:17.498Z,33.95
2023-03-18T09:03:47.923Z,33.42
2023-03-18T09:06:22.292Z,33.71
2023-03-18T09:08:56.044Z,33.97
2023-03-18T09:11:29.304Z,34.03
2023-03-18T09:14:11.110Z,34.31
2023-03-18T09:16:42.050Z,34.33
2023-03-18T09:19:12.440Z,34.34
2023-03-18T09:21:46.040Z,34.37
2023-03-18T09:24:16.733Z,33.77
2023-03-18T09:26:55.629Z,33.70
2023-03-18T09:29:27.022Z,33.97
2023-03-18T09:31:57.099Z,34.06
2023-03-18T09:34:28.736Z,34.03
2023-03-18T09:37:02.287Z,34.24
2023-03-18T09:39:32.345Z,34.12
2023-03-18T09:42:19.887Z,33.97
2023-03-18T09:45:01.767Z,34.13
2023-03-18T09:48:17.373Z,33.65
2023-03-18T09:50:56.687Z,33.72
2023-03-18T09:53:48.032Z,33.28
2023-03-18T09:56:24.411Z,33.98
2023-03-18T09:59:03.304Z,33.88
2023-03-18T10:01:37.521Z,33.76
2023-03-18T10:04:20.176Z,33.78
2023-03-18T10:06:57.939Z,33.66
2023-03-18T10:09:32.070Z,33.64
2023-03-18T10:12:11.815Z,33.81
2023-03-18T10:14:47.460Z,33.62
2023-03-18T10:17:20.029Z,33.68
2023-03-18T10:19:52.023Z,32.64
2023-03-18T10:22:43.779Z,33.25
2023-03-18T10:25:27.393Z,32.75
2023-03-18T10:28:19.176Z,33.44
2023-03-18T10:31:00.267Z,33.15
2023-03-18T10:33:41.512Z,33.44
2023-03-18T10:36:25.906Z,32.81
2023-03-18T10:39:05.292Z,33.12
2023-03-18T10:41:53.849Z,32.75
2023-03-18T10:44:24.951Z,33.05
2023-03-18T10:47:08.704Z,33.19
2023-03-18T10:53:46.142Z,33.06
2023-03-18T10:56:16.032Z,33.44
2023-03-18T10:58:59.282Z,33.62
2023-03-18T11:01:44.594Z,33.38
2023-03-18T11:04:27.842Z,33.14
2023-03-18T11:07:04.825Z,33.28
2023-03-18T11:09:42.848Z,32.88
2023-03-18T11:12:23.721Z,32.87
2023-03-18T11:14:54.290Z,33.11
2023-03-18T11:17:28.707Z,32.59
2023-03-18T11:20:20.430Z,32.49
2023-03-18T11:22:52.122Z,32.79
2023-03-18T11:25:25.976Z,32.87
2023-03-18T11:27:59.705Z,32.81
2023-03-18T11:30:49.783Z,32.78
2023-03-18T11:33:20.601Z,32.42
2023-03-18T11:35:52.869Z,32.31
2023-03-18T11:38:42.835Z,32.02
2023-03-18T11:41:22.818Z,31.44
2023-03-18T11:44:19.222Z,31.42
2023-03-18T11:46:53.797Z,32.22
2023-03-18T11:49:25.080Z,32.40
2023-03-18T11:51:58.308Z,32.72
2023-03-18T11:54:54.279Z,32.85
2023-03-18T11:57:31.892Z,32.84
2023-03-18T12:00:17.119Z,33.06
2023-03-18T12:03:16.432Z,33.21
2023-03-18T12:05:59.689Z,33.30
2023-03-18T12:08:44.511Z,33.62
2023-03-18T12:11:23.067Z,33.71
2023-03-18T12:14:03.644Z,33.79
2023-03-18T12:16:50.124Z,33.83
2023-03-18T12:19:44.387Z,33.90
2023-03-18T12:22:31.954Z,34.06
2023-03-18T12:25:31.642Z,33.89
2023-03-18T12:28:10.975Z,33.94
2023-03-18T12:30:56.752Z,33.89
2023-03-18T12:33:42.789Z,34.23
2023-03-18T12:36:22.731Z,34.47
2023-03-18T12:39:30.609Z,34.56
2023-03-18T12:42:31.024Z,34.59
2023-03-18T12:45:05.557Z,34.78
2023-03-18T12:47:40.834Z,34.91
2023-03-18T12:50:18.694Z,34.96
2023-03-18T12:52:52.258Z,34.95
2023-03-18T12:55:32.757Z,34.88
2023-03-18T12:58:22.581Z,35.04
2023-03-18T13:01:07.819Z,34.89
2023-03-18T13:03:43.121Z,35.00
2023-03-18T13:06:18.258Z,34.97
2023-03-18T13:09:06.312Z,35.05
2023-03-18T13:11:52.335Z,35.12
2023-03-18T13:14:30.296Z,35.13
2023-03-18T13:17:01.566Z,35.31
2023-03-18T13:19:41.580Z,35.16
2023-03-18T13:22:28.575Z,35.27
2023-03-18T13:25:08.353Z,35.53
2023-03-18T13:28:00.951Z,35.46
2023-03-18T13:30:53.579Z,35.67
2023-03-18T13:33:55.560Z,35.74
2023-03-18T13:36:55.213Z,35.71
2023-03-18T13:39:59.943Z,35.91
2023-03-18T13:42:31.083Z,36.05
2023-03-18T13:45:07.142Z,36.06
2023-03-18T13:47:40.953Z,36.12
2023-03-18T13:50:32.081Z,36.24
2023-03-18T13:53:10.325Z,36.25
2023-03-18T13:55:50.774Z,36.17
2023-03-18T13:58:23.425Z,36.15
2023-03-18T14:01:25.989Z,36.10
2023-03-18T14:03:58.867Z,36.19
2023-03-18T14:06:52.045Z,36.27
2023-03-18T14:09:33.775Z,36.42
2023-03-18T14:12:37.781Z,36.70
2023-03-18T14:15:44.750Z,36.97
2023-03-18T14:18:28.386Z,37.02
2023-03-18T14:21:04.983Z,36.97
2023-03-18T14:23:39.850Z,36.97
2023-03-18T14:26:20.348Z,37.03
2023-03-18T14:28:54.437Z,36.86
2023-03-18T14:31:55.858Z,36.89
2023-03-18T14:34:28.771Z,36.78
2023-03-18T14:37:32.060Z,36.70
2023-03-18T14:40:06.798Z,36.87
2023-03-18T14:42:57.017Z,36.79
2023-03-18T14:45:30.796Z,36.69
2023-03-18T14:48:07.758Z,36.83
2023-03-18T14:50:52.170Z,36.81
2023-03-18T14:53:33.880Z,36.74
2023-03-18T14:56:05.099Z,36.71
2023-03-18T14:58:38.258Z,36.67
2023-03-18T15:01:13.587Z,36.65
2023-03-18T15:03:45.917Z,36.90
2023-03-18T15:06:21.319Z,36.80
2023-03-18T15:08:58.652Z,36.70
2023-03-18T15:11:35.097Z,36.78
2023-03-18T15:14:16.945Z,36.75
2023-03-18T15:16:50.897Z,36.79
2023-03-18T15:19:23.193Z,36.79
2023-03-18T15:21:53.745Z,36.90
2023-03-18T15:24:31.503Z,36.93
2023-03-18T15:27:08.700Z,37.03
2023-03-18T15:29:44.553Z,37.09
2023-03-18T15:32:20.401Z,37.00
2023-03-18T15:34:57.380Z,37.16
2023-03-18T15:37:40.283Z,37.20
2023-03-18T15:40:40.311Z,37.22
2023-03-18T15:43:27.795Z,37.42
2023-03-18T15:46:00.352Z,37.63
2023-03-18T15:48:35.072Z,37.74
2023-03-18T15:51:10.983Z,37.82
2023-03-18T15:53:47.312Z,37.81
2023-03-18T15:56:27.411Z,37.83
2023-03-18T15:58:59.071Z,37.94
2023-03-18T16:01:30.240Z,37.99
2023-03-18T16:04:05.099Z,37.87
2023-03-18T16:06:39.309Z,38.07
2023-03-18T16:09:20.807Z,38.21
2023-03-18T16:11:59.107Z,38.28
2023-03-18T16:14:40.289Z,38.21
2023-03-18T16:17:22.203Z,38.27
2023-03-18T16:19:55.269Z,40.76
2023-03-18T16:22:25.902Z,40.28
2023-03-18T16:24:55.689Z,40.92
2023-03-18T16:27:38.337Z,39.42
2023-03-18T16:30:20.455Z,39.27
2023-03-18T16:32:52.579Z,39.22
2023-03-18T16:35:24.963Z,39.06
2023-03-18T16:37:57.350Z,39.03
2023-03-18T16:40:33.184Z,39.18
2023-03-18T16:43:03.300Z,39.22
2023-03-18T16:45:34.434Z,39.24
2023-03-18T16:48:08.068Z,39.41
2023-03-18T16:50:42.093Z,39.43
2023-03-18T16:53:20.250Z,39.69
2023-03-18T16:55:53.281Z,39.79
2023-03-18T16:58:26.757Z,39.92
2023-03-18T17:00:59.142Z,39.83
2023-03-18T17:03:31.183Z,39.88
2023-03-18T17:06:05.963Z,39.99
2023-03-18T17:08:36.869Z,40.11
2023-03-18T17:11:08.244Z,40.54
2023-03-18T17:13:47.269Z,40.46
2023-03-18T17:16:20.094Z,40.56
2023-03-18T17:18:52.599Z,40.66
2023-03-18T17:21:22.099Z,40.69
2023-03-18T17:23:51.729Z,40.88
2023-03-18T17:26:24.089Z,41.07
2023-03-18T17:28:53.995Z,41.12
2023-03-18T17:31:24.056Z,41.08
2023-03-18T17:33:57.646Z,41.25
2023-03-18T17:36:27.831Z,41.42
2023-03-18T17:38:59.708Z,41.43
2023-03-18T17:41:31.689Z,41.48
2023-03-18T17:44:25.540Z,41.58
2023-03-18T17:46:56.483Z,41.63
2023-03-18T17:49:27.635Z,41.70
2023-03-18T17:51:57.364Z,41.76
2023-03-18T17:54:26.599Z,41.67
2023-03-18T17:56:56.189Z,41.78
2023-03-18T17:59:26.649Z,41.84
2023-03-18T18:01:56.111Z,41.99
2023-03-18T18:04:26.978Z,42.00
2023-03-18T18:06:56.594Z,42.02
2023-03-18T18:09:28.242Z,42.06
2023-03-18T18:12:01.067Z,42.19
2023-03-18T18:14:33.018Z,42.20
2023-03-18T18:17:02.604Z,42.37
2023-03-18T18:19:35.278Z,42.70
2023-03-18T18:22:05.700Z,42.54
2023-03-18T18:24:36.131Z,42.50
2023-03-18T18:27:11.847Z,42.62
2023-03-18T18:29:43.149Z,42.78
2023-03-18T18:32:22.230Z,42.83
2023-03-18T18:34:54.046Z,42.83
2023-03-18T18:37:29.465Z,42.87
2023-03-18T18:40:02.267Z,42.98
2023-03-18T18:42:42.051Z,43.15
2023-03-18T18:45:19.958Z,43.10
2023-03-18T18:47:52.317Z,43.25
2023-03-18T18:50:30.216Z,43.19
2023-03-18T18:53:00.397Z,43.24
2023-03-18T18:55:39.331Z,43.30
2023-03-18T18:58:23.280Z,43.34
2023-03-18T19:00:57.862Z,43.43
2023-03-18T19:03:32.348Z,43.45
2023-03-18T19:06:04.530Z,43.49
2023-03-18T19:08:42.697Z,43.39
2023-03-18T19:11:19.765Z,43.52
2023-03-18T19:13:50.030Z,43.56
2023-03-18T19:16:33.839Z,43.57
2023-03-18T19:19:08.362Z,43.68
2023-03-18T19:21:41.197Z,43.83
2023-03-18T19:24:28.389Z,43.74
2023-03-18T19:27:00.960Z,43.92
2023-03-18T19:29:31.941Z,43.67
2023-03-18T19:32:01.615Z,43.83
2023-03-18T19:34:33.243Z,43.75
2023-03-18T19:37:18.968Z,43.87
2023-03-18T19:40:03.890Z,43.96
2023-03-18T19:42:35.138Z,43.92
2023-03-18T19:45:07.250Z,44.03
2023-03-18T19:47:43.914Z,44.00
2023-03-18T19:50:21.219Z,44.03
2023-03-18T19:52:54.555Z,44.22
2023-03-18T19:55:31.792Z,44.18
2023-03-18T19:58:07.978Z,44.22
2023-03-18T20:00:47.446Z,44.18
2023-03-18T20:03:21.699Z,44.36
2023-03-18T20:05:54.295Z,44.33
2023-03-18T20:08:40.638Z,44.34
2023-03-18T20:11:30.044Z,44.32
2023-03-18T20:14:11.814Z,44.50
2023-03-18T20:17:08.958Z,44.39
2023-03-18T20:19:44.101Z,44.53
2023-03-18T20:22:26.672Z,44.50
2023-03-18T20:24:56.143Z,44.62
2023-03-18T20:27:26.066Z,44.61
2023-03-18T20:29:56.310Z,44.68
2023-03-18T20:32:30.600Z,44.63
2023-03-18T20:35:03.762Z,44.72
2023-03-18T20:37:45.612Z,44.72
2023-03-18T20:40:24.799Z,44.82
2023-03-18T20:42:58.920Z,44.77
2023-03-18T20:45:34.090Z,44.77
2023-03-18T20:48:09.220Z,44.90
2023-03-18T20:50:38.851Z,44.85
2023-03-18T20:53:18.775Z,44.95
2023-03-18T20:55:49.635Z,44.94
2023-03-18T20:58:25.486Z,44.97
2023-03-18T21:00:57.326Z,45.01
2023-03-18T21:03:43.849Z,45.05
2023-03-18T21:06:19.276Z,45.12
2023-03-18T21:08:53.571Z,45.18
2023-03-18T21:11:29.415Z,45.20
2023-03-18T21:14:00.704Z,45.21
2023-03-18T21:16:31.522Z,45.21
2023-03-18T21:19:02.447Z,45.20
2023-03-18T21:21:39.593Z,45.30
2023-03-18T21:24:25.097Z,45.25
2023-03-18T21:27:04.678Z,45.34
2023-03-18T21:29:38.007Z,45.27
2023-03-18T21:32:21.630Z,45.22
2023-03-18T21:35:03.073Z,45.24
2023-03-18T21:37:34.878Z,45.45
2023-03-18T21:40:05.376Z,45.40
2023-03-18T21:42:36.821Z,45.38
2023-03-18T21:45:13.840Z,45.45
2023-03-18T21:47:46.534Z,45.48
2023-03-18T21:50:25.509Z,45.47
2023-03-18T21:52:58.776Z,45.49
2023-03-18T21:55:35.669Z,45.57
2023-03-18T21:58:15.645Z,45.57
2023-03-18T22:00:58.349Z,45.61
2023-03-18T22:03:32.756Z,45.59
2023-03-18T22:06:02.462Z,45.69
2023-03-18T22:08:32.085Z,45.74
2023-03-18T22:11:01.590Z,45.83
2023-03-18T22:13:32.654Z,45.74
2023-03-18T22:16:04.620Z,45.82
2023-03-18T22:18:37.833Z,45.86
2023-03-18T22:21:17.176Z,45.71
2023-03-18T22:23:48.167Z,45.80
2023-03-18T22:26:22.382Z,45.99
2023-03-18T22:29:00.906Z,46.16
2023-03-18T22:31:35.277Z,46.25
2023-03-18T22:34:10.150Z,46.59
2023-03-18T22:36:39.417Z,47.00
2023-03-18T22:39:11.402Z,47.16
2023-03-18T22:41:43.104Z,47.23
2023-03-18T22:44:22.779Z,47.53
2023-03-18T22:46:52.629Z,47.80
2023-03-18T22:49:21.825Z,47.70
2023-03-18T22:51:51.048Z,48.08
2023-03-18T22:54:20.762Z,48.24
2023-03-18T22:56:51.360Z,49.02
2023-03-18T22:59:21.170Z,49.57
2023-03-18T23:01:54.137Z,48.93
2023-03-18T23:04:26.776Z,48.78
2023-03-18T23:06:57.066Z,48.67
2023-03-18T23:09:29.897Z,48.95
2023-03-18T23:11:59.854Z,48.84
2023-03-18T23:14:29.578Z,48.80
2023-03-18T23:17:00.288Z,48.94
2023-03-18T23:19:31.040Z,48.90
2023-03-18T23:22:00.139Z,48.98
2023-03-18T23:24:28.646Z,48.93
2023-03-18T23:26:58.863Z,49.14
2023-03-18T23:29:29.468Z,49.14
2023-03-18T23:32:02.122Z,49.31
2023-03-18T23:34:31.947Z,49.50
2023-03-18T23:37:09.179Z,49.56
2023-03-18T23:39:45.810Z,49.65
2023-03-18T23:42:19.263Z,49.49
2023-03-18T23:44:49.340Z,49.56
2023-03-18T23:47:18.852Z,49.62
2023-03-18T23:49:48.333Z,49.60
2023-03-18T23:52:17.991Z,49.51
2023-03-18T23:54:50.398Z,49.43
2023-03-18T23:57:23.085Z,49.50
2023-03-18T23:59:52.539Z,49.55
